createdAt,value
2022-12-18T00:01:21.440Z,-3.61
2022-12-18T00:03:48.824Z,-3.59
2022-12-18T00:06:16.009Z,-3.67
2022-12-18T00:08:43.311Z,-3.65
2022-12-18T00:11:13.751Z,-3.71
2022-12-18T00:13:41.312Z,-3.83
2022-12-18T00:16:11.264Z,-3.90
2022-12-18T00:18:38.434Z,-4.00
2022-12-18T00:21:07.883Z,-4.08
2022-12-18T00:23:36.768Z,-4.13
2022-12-18T00:26:13.056Z,-4.19
2022-12-18T00:28:39.760Z,-4.19
2022-12-18T00:31:12.188Z,-4.20
2022-12-18T00:33:39.209Z,-4.25
2022-12-18T00:36:21.617Z,-4.25
2022-12-18T00:38:48.949Z,-4.36
2022-12-18T00:41:39.537Z,-4.43
2022-12-18T00:44:10.235Z,-4.54
2022-12-18T00:46:37.013Z,-4.68
2022-12-18T00:49:04.032Z,-4.74
2022-12-18T00:51:30.919Z,-4.77
2022-12-18T00:53:57.566Z,-4.79
2022-12-18T00:56:24.796Z,-4.75
2022-12-18T00:58:53.502Z,-4.69
2022-12-18T01:01:20.844Z,-4.74
2022-12-18T01:03:47.874Z,-4.77
2022-12-18T01:06:16.851Z,-4.79
2022-12-18T01:08:44.111Z,-4.84
2022-12-18T01:11:16.039Z,-4.78
2022-12-18T01:13:43.427Z,-4.75
2022-12-18T01:16:13.395Z,-4.79
2022-12-18T01:18:40.488Z,-4.86
2022-12-18T01:21:09.053Z,-4.89
2022-12-18T01:23:38.134Z,-4.94
2022-12-18T01:26:07.300Z,-4.96
2022-12-18T01:28:36.231Z,-4.90
2022-12-18T01:31:19.172Z,-4.88
2022-12-18T01:33:47.040Z,-4.91
2022-12-18T01:36:29.854Z,-4.92
2022-12-18T01:38:57.529Z,-4.93
2022-12-18T01:41:27.273Z,-4.97
2022-12-18T01:43:58.361Z,-5.06
2022-12-18T01:46:26.669Z,-5.14
2022-12-18T01:49:02.483Z,-5.20
2022-12-18T01:51:31.460Z,-5.16
2022-12-18T01:54:00.195Z,-5.13
2022-12-18T01:56:26.942Z,-5.24
2022-12-18T01:59:04.786Z,-5.28
2022-12-18T02:01:33.806Z,-5.30
2022-12-18T02:04:20.429Z,-5.25
2022-12-18T02:06:52.118Z,-5.24
2022-12-18T02:09:25.151Z,-5.18
2022-12-18T02:12:07.031Z,-5.18
2022-12-18T02:14:50.659Z,-5.34
2022-12-18T02:17:21.799Z,-5.41
2022-12-18T02:20:00.723Z,-5.40
2022-12-18T02:22:51.492Z,-5.39
2022-12-18T02:25:41.351Z,-5.48
2022-12-18T02:28:14.434Z,-5.60
2022-12-18T02:30:43.582Z,-5.65
2022-12-18T02:33:13.321Z,-5.57
2022-12-18T02:35:42.789Z,-5.48
2022-12-18T02:38:10.379Z,-5.58
2022-12-18T02:40:39.746Z,-5.65
2022-12-18T02:43:12.992Z,-5.64
2022-12-18T02:45:55.278Z,-5.58
2022-12-18T02:48:32.213Z,-5.62
2022-12-18T02:51:30.437Z,-5.63
2022-12-18T02:54:18.783Z,-5.71
2022-12-18T02:56:53.016Z,-5.59
2022-12-18T02:59:24.423Z,-5.69
2022-12-18T03:02:18.830Z,-5.60
2022-12-18T03:04:54.939Z,-5.64
2022-12-18T03:07:37.832Z,-5.69
2022-12-18T03:10:12.567Z,-5.65
2022-12-18T03:12:44.847Z,-5.71
2022-12-18T03:15:24.296Z,-5.74
2022-12-18T03:18:05.346Z,-5.88
2022-12-18T03:20:37.798Z,-6.03
2022-12-18T03:23:12.536Z,-6.00
2022-12-18T03:25:45.509Z,-6.00
2022-12-18T03:28:20.646Z,-6.01
2022-12-18T03:31:00.047Z,-6.08
2022-12-18T03:33:31.843Z,-6.10
2022-12-18T03:35:58.684Z,-6.09
2022-12-18T03:38:25.723Z,-6.06
2022-12-18T03:41:04.122Z,-6.19
2022-12-18T03:44:01.247Z,-6.19
2022-12-18T03:46:34.619Z,-6.27
2022-12-18T03:49:13.849Z,-6.32
2022-12-18T03:52:07.131Z,-6.24
2022-12-18T03:54:36.291Z,-6.15
2022-12-18T03:57:31.325Z,-6.22
2022-12-18T04:00:19.727Z,-6.31
2022-12-18T04:03:00.213Z,-6.31
2022-12-18T04:05:36.508Z,-6.29
2022-12-18T04:08:04.073Z,-6.32
2022-12-18T04:10:37.555Z,-6.36
2022-12-18T04:13:04.206Z,-6.42
2022-12-18T04:15:32.754Z,-6.54
2022-12-18T04:18:00.152Z,-6.46
2022-12-18T04:20:35.819Z,-6.38
2022-12-18T04:23:03.879Z,-6.37
2022-12-18T04:25:30.744Z,-6.29
2022-12-18T04:28:10.861Z,-6.24
2022-12-18T04:30:39.501Z,-6.28
2022-12-18T04:33:17.762Z,-6.30
2022-12-18T04:35:44.601Z,-6.28
2022-12-18T04:38:11.235Z,-6.24
2022-12-18T04:40:39.036Z,-6.35
2022-12-18T04:43:12.126Z,-6.41
2022-12-18T04:45:39.040Z,-6.45
2022-12-18T04:48:07.495Z,-6.34
2022-12-18T04:50:34.165Z,-6.21
2022-12-18T04:53:00.830Z,-6.21
2022-12-18T04:55:28.220Z,-6.20
2022-12-18T04:57:57.371Z,-6.27
2022-12-18T05:00:23.874Z,-6.26
2022-12-18T05:02:50.527Z,-6.25
2022-12-18T05:05:17.402Z,-6.31
2022-12-18T05:07:44.254Z,-6.36
2022-12-18T05:10:11.096Z,-6.41
2022-12-18T05:13:00.987Z,-6.41
2022-12-18T05:15:33.441Z,-6.38
2022-12-18T05:18:04.658Z,-6.47
2022-12-18T05:20:31.467Z,-6.37
2022-12-18T05:22:58.418Z,-6.39
2022-12-18T05:25:25.613Z,-6.48
2022-12-18T05:27:52.165Z,-6.63
2022-12-18T05:30:18.872Z,-6.57
2022-12-18T05:32:45.414Z,-6.51
2022-12-18T05:35:12.345Z,-6.46
2022-12-18T05:37:43.026Z,-6.42
2022-12-18T05:40:11.670Z,-6.44
2022-12-18T05:42:38.622Z,-6.44
2022-12-18T05:45:06.537Z,-6.37
2022-12-18T05:47:33.482Z,-6.33
2022-12-18T05:50:00.272Z,-6.37
2022-12-18T05:52:26.861Z,-6.28
2022-12-18T05:54:53.423Z,-6.22
2022-12-18T05:57:20.044Z,-6.27
2022-12-18T05:59:46.655Z,-6.32
2022-12-18T06:02:13.431Z,-6.32
2022-12-18T06:04:40.100Z,-6.40
2022-12-18T06:07:06.951Z,-6.54
2022-12-18T06:09:33.588Z,-6.56
2022-12-18T06:12:00.212Z,-6.47
2022-12-18T06:14:26.899Z,-6.40
2022-12-18T06:16:53.585Z,-6.37
2022-12-18T06:19:20.271Z,-6.39
2022-12-18T06:21:46.835Z,-6.44
2022-12-18T06:24:13.393Z,-6.55
2022-12-18T06:26:40.336Z,-6.56
2022-12-18T06:29:07.191Z,-6.57
2022-12-18T06:31:33.891Z,-6.53
2022-12-18T06:34:03.976Z,-6.52
2022-12-18T06:36:30.716Z,-6.52
2022-12-18T06:38:58.552Z,-6.51
2022-12-18T06:41:25.243Z,-6.40
2022-12-18T06:43:55.558Z,-6.43
2022-12-18T06:46:28.125Z,-6.42
2022-12-18T06:48:54.903Z,-6.36
2022-12-18T06:51:23.492Z,-6.36
2022-12-18T06:53:53.394Z,-6.28
2022-12-18T06:56:20.367Z,-6.25
2022-12-18T06:58:47.067Z,-6.33
2022-12-18T07:01:14.393Z,-6.34
2022-12-18T07:03:42.959Z,-6.39
2022-12-18T07:06:18.681Z,-6.34
2022-12-18T07:08:46.724Z,-6.34
2022-12-18T07:11:14.267Z,-6.43
2022-12-18T07:13:41.287Z,-6.42
2022-12-18T07:16:24.605Z,-6.33
2022-12-18T07:18:51.670Z,-6.24
2022-12-18T07:21:20.603Z,-6.25
2022-12-18T07:23:48.934Z,-6.20
2022-12-18T07:26:18.404Z,-6.26
2022-12-18T07:28:45.002Z,-6.23
2022-12-18T07:31:21.536Z,-6.21
2022-12-18T07:33:49.347Z,-6.22
2022-12-18T07:36:16.480Z,-6.18
2022-12-18T07:38:43.590Z,-6.15
2022-12-18T07:41:13.495Z,-6.19
2022-12-18T07:43:42.353Z,-6.14
2022-12-18T07:46:10.635Z,-6.15
2022-12-18T07:48:39.387Z,-6.17
2022-12-18T07:51:07.634Z,-6.13
2022-12-18T07:53:36.639Z,-6.05
2022-12-18T07:56:26.473Z,-6.03
2022-12-18T07:58:53.490Z,-5.99
2022-12-18T08:01:20.240Z,-5.97
2022-12-18T08:03:48.215Z,-5.93
2022-12-18T08:06:15.173Z,-5.99
2022-12-18T08:08:43.178Z,-5.94
2022-12-18T08:11:10.009Z,-5.87
2022-12-18T08:13:37.182Z,-5.78
2022-12-18T08:16:07.133Z,-5.74
2022-12-18T08:18:35.409Z,-5.70
2022-12-18T08:21:19.383Z,-5.68
2022-12-18T08:23:48.824Z,-5.61
2022-12-18T08:26:16.854Z,-5.55
2022-12-18T08:28:43.888Z,-5.50
2022-12-18T08:31:11.530Z,-5.52
2022-12-18T08:33:40.594Z,-5.45
2022-12-18T08:36:11.204Z,-5.42
2022-12-18T08:38:38.128Z,-5.31
2022-12-18T08:41:07.502Z,-5.32
2022-12-18T08:43:53.270Z,-5.27
2022-12-18T08:46:21.681Z,-5.11
2022-12-18T08:48:48.364Z,-5.06
2022-12-18T08:51:17.423Z,-5.05
2022-12-18T08:53:45.479Z,-4.94
2022-12-18T08:56:12.844Z,-4.91
2022-12-18T08:58:42.992Z,-4.81
2022-12-18T09:01:12.924Z,-4.80
2022-12-18T09:03:40.887Z,-4.71
2022-12-18T09:06:08.632Z,-4.64
2022-12-18T09:08:39.058Z,-4.55
2022-12-18T09:11:11.624Z,-4.51
2022-12-18T09:13:38.445Z,-4.44
2022-12-18T09:16:05.821Z,-4.36
2022-12-18T09:18:32.521Z,-4.32
2022-12-18T09:20:59.131Z,-4.23
2022-12-18T09:23:25.983Z,-4.21
2022-12-18T09:25:52.992Z,-4.16
2022-12-18T09:28:20.220Z,-4.21
2022-12-18T09:30:50.241Z,-4.07
2022-12-18T09:33:18.405Z,-3.99
2022-12-18T09:35:48.498Z,-3.97
2022-12-18T09:38:18.958Z,-3.91
2022-12-18T09:41:16.790Z,-3.85
2022-12-18T09:43:50.936Z,-3.74
2022-12-18T09:46:23.819Z,-3.62
2022-12-18T09:48:54.580Z,-3.64
2022-12-18T09:51:27.284Z,-3.57
2022-12-18T09:54:02.098Z,-3.44
2022-12-18T09:56:35.876Z,-3.29
2022-12-18T09:59:06.319Z,-3.27
2022-12-18T10:01:43.195Z,-3.19
2022-12-18T10:04:11.456Z,-3.11
2022-12-18T10:07:09.094Z,-2.98
2022-12-18T10:09:44.306Z,-2.93
2022-12-18T10:12:24.905Z,-2.87
2022-12-18T10:14:59.102Z,-2.77
2022-12-18T10:17:55.629Z,-2.74
2022-12-18T10:20:38.526Z,-2.69
2022-12-18T10:23:21.920Z,-2.67
2022-12-18T10:26:07.758Z,-2.63
2022-12-18T10:28:38.017Z,-2.61
2022-12-18T10:31:07.396Z,-2.60
2022-12-18T10:33:35.053Z,-2.49
2022-12-18T10:36:01.772Z,-2.44
2022-12-18T10:38:40.520Z,-2.38
2022-12-18T10:41:18.393Z,-2.31
2022-12-18T10:43:45.249Z,-2.23
2022-12-18T10:46:12.157Z,-2.11
2022-12-18T10:48:51.902Z,-2.06
2022-12-18T10:51:23.494Z,-2.01
2022-12-18T10:54:06.622Z,-1.98
2022-12-18T10:56:38.615Z,-1.94
2022-12-18T10:59:12.824Z,-1.81
2022-12-18T11:01:58.272Z,-1.80
2022-12-18T11:04:31.248Z,-1.76
2022-12-18T11:07:01.415Z,-1.70
2022-12-18T11:09:30.648Z,-1.62
2022-12-18T11:12:03.440Z,-1.56
2022-12-18T11:14:47.056Z,-1.53
2022-12-18T11:17:27.263Z,-1.51
2022-12-18T11:19:59.655Z,-1.44
2022-12-18T11:22:33.000Z,-1.41
2022-12-18T11:27:59.173Z,-1.24
2022-12-18T11:30:32.715Z,-1.37
2022-12-18T11:33:19.335Z,-1.12
2022-12-18T11:35:59.202Z,-1.03
2022-12-18T11:38:30.686Z,-1.01
2022-12-18T11:41:05.005Z,-1.03
2022-12-18T11:44:11.411Z,-0.97
2022-12-18T11:46:47.848Z,-1.01
2022-12-18T11:49:48.609Z,-1.01
2022-12-18T11:52:26.219Z,-0.91
2022-12-18T11:54:56.221Z,-0.88
2022-12-18T11:57:31.938Z,-0.85
2022-12-18T12:00:11.157Z,-0.87
2022-12-18T12:02:52.332Z,-0.80
2022-12-18T12:05:37.018Z,-0.68
2022-12-18T12:08:18.798Z,-0.70
2022-12-18T12:10:45.379Z,-0.68
2022-12-18T12:13:41.448Z,-0.65
2022-12-18T12:16:26.088Z,-0.68
2022-12-18T12:19:21.238Z,-0.49
2022-12-18T12:22:02.154Z,-0.52
2022-12-18T12:24:50.484Z,-0.54
2022-12-18T12:27:17.022Z,-0.43
2022-12-18T12:29:49.770Z,-0.39
2022-12-18T12:32:34.033Z,-0.36
2022-12-18T12:35:09.278Z,-0.36
2022-12-18T12:37:45.988Z,-0.29
2022-12-18T12:40:50.201Z,-0.26
2022-12-18T12:43:27.841Z,-0.26
2022-12-18T12:46:07.958Z,-0.33
2022-12-18T12:48:43.985Z,-0.20
2022-12-18T12:51:17.285Z,-0.18
2022-12-18T12:53:44.533Z,-0.24
2022-12-18T12:56:15.712Z,-0.21
2022-12-18T12:59:04.263Z,-0.15
2022-12-18T13:01:53.505Z,-0.14
2022-12-18T13:04:49.492Z,-0.17
2022-12-18T13:07:42.525Z,-0.17
2022-12-18T13:10:12.338Z,-0.08
2022-12-18T13:12:57.776Z,-0.04
2022-12-18T13:15:31.127Z,-0.05
2022-12-18T13:18:06.537Z,-0.06
2022-12-18T13:20:41.904Z,-0.07
2022-12-18T13:23:41.377Z,-0.08
2022-12-18T13:26:09.272Z,-0.07
2022-12-18T13:28:48.011Z,-0.02
2022-12-18T13:31:15.548Z,-0.10
2022-12-18T13:34:23.854Z,-0.05
2022-12-18T13:36:35.249Z,-0.08
2022-12-18T13:39:18.428Z,-0.02
2022-12-18T13:41:51.350Z,-0.09
2022-12-18T13:44:35.965Z,-0.03
2022-12-18T13:47:27.553Z,0.01
2022-12-18T13:49:56.004Z,0.02
2022-12-18T13:52:26.309Z,0.01
2022-12-18T13:54:56.525Z,0.06
2022-12-18T13:57:34.075Z,0.08
2022-12-18T14:00:25.383Z,0.11
2022-12-18T14:02:52.525Z,0.06
2022-12-18T14:05:26.866Z,0.07
2022-12-18T14:07:55.545Z,0.04
2022-12-18T14:10:45.567Z,0.09
2022-12-18T14:13:12.288Z,0.04
2022-12-18T14:15:48.881Z,0.11
2022-12-18T14:18:15.500Z,0.11
2022-12-18T14:20:49.241Z,0.12
2022-12-18T14:23:46.119Z,0.06
2022-12-18T14:26:25.469Z,0.09
2022-12-18T14:28:52.626Z,0.13
2022-12-18T14:31:25.709Z,0.16
2022-12-18T14:33:53.869Z,0.13
2022-12-18T14:36:26.137Z,0.16
2022-12-18T14:38:55.532Z,0.14
2022-12-18T14:41:23.166Z,0.14
2022-12-18T14:43:51.867Z,0.13
2022-12-18T14:46:36.159Z,0.14
2022-12-18T14:49:07.018Z,0.14
2022-12-18T14:51:35.613Z,0.12
2022-12-18T14:54:08.984Z,0.15
2022-12-18T14:56:43.775Z,0.07
2022-12-18T14:59:24.551Z,0.11
2022-12-18T15:02:00.857Z,0.14
2022-12-18T15:04:36.065Z,0.13
2022-12-18T15:07:12.238Z,0.13
2022-12-18T15:09:40.575Z,0.09
2022-12-18T15:12:25.577Z,0.03
2022-12-18T15:14:52.411Z,0.09
2022-12-18T15:17:24.171Z,0.20
2022-12-18T15:20:01.552Z,0.14
2022-12-18T15:22:35.527Z,0.13
2022-12-18T15:25:06.235Z,0.10
2022-12-18T15:27:36.866Z,0.08
2022-12-18T15:30:09.686Z,0.11
2022-12-18T15:32:38.421Z,0.11
2022-12-18T15:35:16.348Z,0.15
2022-12-18T15:37:43.748Z,0.16
2022-12-18T15:40:18.859Z,0.11
2022-12-18T15:43:07.515Z,0.16
2022-12-18T15:45:34.598Z,0.20
2022-12-18T15:48:01.307Z,0.19
2022-12-18T15:50:28.162Z,0.19
2022-12-18T15:52:56.522Z,0.25
2022-12-18T15:55:43.609Z,0.22
2022-12-18T15:58:12.840Z,0.25
2022-12-18T16:00:41.275Z,0.31
2022-12-18T16:03:08.476Z,0.32
2022-12-18T16:05:35.384Z,0.27
2022-12-18T16:08:02.330Z,0.30
2022-12-18T16:10:32.657Z,0.36
2022-12-18T16:12:59.284Z,0.40
2022-12-18T16:15:26.132Z,0.39
2022-12-18T16:17:53.167Z,0.45
2022-12-18T16:20:22.425Z,0.46
2022-12-18T16:22:49.658Z,0.47
2022-12-18T16:25:22.856Z,0.42
2022-12-18T16:27:50.163Z,0.45
2022-12-18T16:30:22.167Z,0.49
2022-12-18T16:32:51.876Z,0.46
2022-12-18T16:35:18.689Z,0.55
2022-12-18T16:37:45.770Z,0.51
2022-12-18T16:40:15.390Z,0.52
2022-12-18T16:42:44.207Z,0.55
2022-12-18T16:45:18.075Z,0.62
2022-12-18T16:47:45.264Z,0.63
2022-12-18T16:50:12.115Z,0.65
2022-12-18T16:52:39.519Z,0.61
2022-12-18T16:55:06.420Z,0.69
2022-12-18T16:57:33.459Z,0.70
2022-12-18T17:00:05.213Z,0.71
2022-12-18T17:02:32.961Z,0.75
2022-12-18T17:05:00.383Z,0.79
2022-12-18T17:07:28.539Z,0.80
2022-12-18T17:09:56.814Z,0.83
2022-12-18T17:12:23.684Z,0.83
2022-12-18T17:14:50.703Z,0.76
2022-12-18T17:17:21.513Z,0.89
2022-12-18T17:19:49.854Z,0.93
2022-12-18T17:22:16.515Z,0.98
2022-12-18T17:24:43.157Z,0.93
2022-12-18T17:27:09.676Z,1.03
2022-12-18T17:29:37.655Z,1.03
2022-12-18T17:32:06.720Z,0.99
2022-12-18T17:34:33.398Z,1.06
2022-12-18T17:37:00.565Z,1.11
2022-12-18T17:39:31.174Z,1.07
2022-12-18T17:42:01.593Z,1.07
2022-12-18T17:44:28.345Z,1.09
2022-12-18T17:46:55.144Z,1.05
2022-12-18T17:49:21.802Z,1.04
2022-12-18T17:51:49.201Z,1.15
2022-12-18T17:54:16.369Z,1.10
2022-12-18T17:56:43.355Z,1.11
2022-12-18T17:59:11.018Z,1.16
2022-12-18T18:01:44.108Z,1.15
2022-12-18T18:04:12.574Z,1.18
2022-12-18T18:06:39.589Z,1.19
2022-12-18T18:09:08.638Z,1.21
2022-12-18T18:12:00.622Z,1.21
2022-12-18T18:14:30.244Z,1.29
2022-12-18T18:16:56.902Z,1.29
2022-12-18T18:19:27.445Z,1.28
2022-12-18T18:21:54.633Z,1.33
2022-12-18T18:24:23.613Z,1.36
2022-12-18T18:26:50.801Z,1.36
2022-12-18T18:29:26.231Z,1.33
2022-12-18T18:31:54.279Z,1.42
2022-12-18T18:34:24.344Z,1.37
2022-12-18T18:36:51.663Z,1.44
2022-12-18T18:39:19.091Z,1.42
2022-12-18T18:41:47.904Z,1.48
2022-12-18T18:44:17.107Z,1.53
2022-12-18T18:46:44.328Z,1.54
2022-12-18T18:49:11.766Z,1.58
2022-12-18T18:51:40.434Z,1.62
2022-12-18T18:54:10.091Z,1.66
2022-12-18T18:59:29.156Z,1.62
2022-12-18T19:02:04.332Z,1.65
2022-12-18T19:04:33.082Z,1.66
2022-12-18T19:07:00.168Z,1.63
2022-12-18T19:09:28.104Z,1.55
2022-12-18T19:12:14.326Z,1.51
2022-12-18T19:14:41.433Z,1.52
2022-12-18T19:17:08.312Z,1.54
2022-12-18T19:19:35.160Z,1.56
2022-12-18T19:22:02.132Z,1.53
2022-12-18T19:24:32.012Z,1.47
2022-12-18T19:26:59.000Z,1.49
2022-12-18T19:29:25.758Z,1.45
2022-12-18T19:31:52.666Z,1.43
2022-12-18T19:34:19.402Z,1.42
2022-12-18T19:36:46.540Z,1.42
2022-12-18T19:39:15.827Z,1.46
2022-12-18T19:41:43.122Z,1.41
2022-12-18T19:44:16.778Z,1.41
2022-12-18T19:46:46.016Z,1.44
2022-12-18T19:49:17.696Z,1.46
2022-12-18T19:51:45.640Z,1.44
2022-12-18T19:54:16.914Z,1.51
2022-12-18T19:56:44.287Z,1.42
2022-12-18T19:59:10.889Z,1.46
2022-12-18T20:01:37.837Z,1.45
2022-12-18T20:04:05.049Z,1.44
2022-12-18T20:06:46.708Z,1.37
2022-12-18T20:09:13.394Z,1.39
2022-12-18T20:11:41.613Z,1.36
2022-12-18T20:14:10.134Z,1.37
2022-12-18T20:16:36.925Z,1.41
2022-12-18T20:19:04.304Z,1.47
2022-12-18T20:21:31.268Z,1.40
2022-12-18T20:24:01.116Z,1.41
2022-12-18T20:26:29.278Z,1.46
2022-12-18T20:28:56.654Z,1.44
2022-12-18T20:31:23.968Z,1.49
2022-12-18T20:33:52.163Z,1.52
2022-12-18T20:36:23.460Z,1.48
2022-12-18T20:38:57.103Z,1.45
2022-12-18T20:41:25.793Z,1.51
2022-12-18T20:43:54.366Z,1.56
2022-12-18T20:46:21.424Z,1.51
2022-12-18T20:48:50.070Z,1.59
2022-12-18T20:51:20.185Z,1.58
2022-12-18T20:53:47.730Z,1.54
2022-12-18T20:56:22.129Z,1.57
2022-12-18T20:58:50.545Z,1.52
2022-12-18T21:01:23.305Z,1.49
2022-12-18T21:03:50.853Z,1.57
2022-12-18T21:06:19.689Z,1.55
2022-12-18T21:08:46.185Z,1.49
2022-12-18T21:11:38.742Z,1.53
2022-12-18T21:14:13.144Z,1.70
2022-12-18T21:16:40.368Z,1.70
2022-12-18T21:19:06.965Z,1.66
2022-12-18T21:21:35.875Z,1.66
2022-12-18T21:24:07.187Z,1.65
2022-12-18T21:26:33.960Z,1.66
2022-12-18T21:29:03.757Z,1.64
2022-12-18T21:31:35.174Z,1.71
2022-12-18T21:34:04.005Z,1.65
2022-12-18T21:36:33.616Z,1.64
2022-12-18T21:39:01.532Z,1.67
2022-12-18T21:41:47.514Z,1.67
2022-12-18T21:44:17.590Z,1.66
2022-12-18T21:46:52.827Z,1.70
2022-12-18T21:49:23.135Z,1.71
2022-12-18T21:51:52.037Z,1.72
2022-12-18T21:54:20.035Z,1.72
2022-12-18T21:56:49.776Z,1.75
2022-12-18T21:59:40.265Z,1.72
2022-12-18T22:02:21.482Z,1.73
2022-12-18T22:04:48.731Z,1.78
2022-12-18T22:07:16.695Z,1.80
2022-12-18T22:09:43.484Z,1.80
2022-12-18T22:12:13.310Z,1.79
2022-12-18T22:14:40.015Z,1.82
2022-12-18T22:17:06.867Z,1.85
2022-12-18T22:19:38.106Z,1.89
2022-12-18T22:22:09.520Z,1.85
2022-12-18T22:24:35.999Z,1.88
2022-12-18T22:27:02.666Z,1.92
2022-12-18T22:29:50.756Z,2.00
2022-12-18T22:32:22.237Z,1.97
2022-12-18T22:35:05.289Z,2.10
2022-12-18T22:37:34.110Z,2.09
2022-12-18T22:40:03.151Z,2.11
2022-12-18T22:42:31.698Z,2.05
2022-12-18T22:45:00.563Z,2.12
2022-12-18T22:47:30.007Z,2.16
2022-12-18T22:49:57.936Z,2.23
2022-12-18T22:52:25.294Z,2.28
2022-12-18T22:54:53.246Z,2.28
2022-12-18T22:57:22.078Z,2.26
2022-12-18T22:59:49.587Z,2.27
2022-12-18T23:02:17.884Z,2.17
2022-12-18T23:04:44.999Z,2.23
2022-12-18T23:07:12.095Z,2.26
2022-12-18T23:09:39.560Z,2.17
2022-12-18T23:12:06.609Z,2.21
2022-12-18T23:14:33.423Z,2.15
2022-12-18T23:17:01.351Z,2.16
2022-12-18T23:19:27.914Z,2.22
2022-12-18T23:21:58.835Z,2.23
2022-12-18T23:24:26.661Z,2.17
2022-12-18T23:26:53.323Z,2.29
2022-12-18T23:29:20.560Z,2.31
2022-12-18T23:31:47.521Z,2.38
2022-12-18T23:34:14.766Z,2.37
2022-12-18T23:36:45.577Z,2.36
2022-12-18T23:39:15.632Z,2.36
2022-12-18T23:41:59.459Z,2.46
2022-12-18T23:44:26.390Z,2.44
2022-12-18T23:46:53.409Z,2.52
2022-12-18T23:49:20.348Z,2.52
2022-12-18T23:51:47.155Z,2.56
2022-12-18T23:54:13.741Z,2.64
2022-12-18T23:56:40.359Z,2.71
2022-12-18T23:59:07.089Z,2.83
